Murphy, Iowa
Current Conditions -  °F | °C
As of 10:07 AM on Sunday 23 Nov 2014 (Local Time) from KALO Reporting Station
Haze Haze  
Wind Chill: 50°   Ceiling: 400
Heat Index: 50°   Visibility: 3mi
Dew Point: 50°   Wind: 13mph
Humidity: 100%   Direction: 160°SSE
Pressure: 29.51"   Gusts: NA
Location:  42.787°N, 92.4284°W
Report Text: KALO 231607Z 16011KT 3SM BR OVC004 10/10 A2951 RMK AO2 T01000100 $
Loading
Personal Weather Stations






























Interactive Weather Map New forecast layout! Learn more

10-Day Weather Forecast

Advertisements
Track Severe Weather on mobile